sensor_id;sensor_type;location;lat;lon;timestamp;temperature;humidity
39621;DHT22;25309;48.686;9.170;2024-01-25T00:01:55;9.50;99.90
39621;DHT22;25309;48.686;9.170;2024-01-25T00:04:24;9.40;99.90
39621;DHT22;25309;48.686;9.170;2024-01-25T00:06:51;9.40;99.90
39621;DHT22;25309;48.686;9.170;2024-01-25T00:09:18;9.40;99.90
39621;DHT22;25309;48.686;9.170;2024-01-25T00:11:45;9.50;99.90
39621;DHT22;25309;48.686;9.170;2024-01-25T00:14:12;9.40;99.90
39621;DHT22;25309;48.686;9.170;2024-01-25T00:16:40;9.40;99.90
39621;DHT22;25309;48.686;9.170;2024-01-25T00:19:08;9.40;99.90
39621;DHT22;25309;48.686;9.170;2024-01-25T00:21:41;9.50;99.90
39621;DHT22;25309;48.686;9.170;2024-01-25T00:24:08;9.50;99.90
39621;DHT22;25309;48.686;9.170;2024-01-25T00:26:35;9.50;99.90
39621;DHT22;25309;48.686;9.170;2024-01-25T00:29:02;9.50;99.90
39621;DHT22;25309;48.686;9.170;2024-01-25T00:31:29;9.50;99.90
39621;DHT22;25309;48.686;9.170;2024-01-25T00:33:57;9.50;99.90
39621;DHT22;25309;48.686;9.170;2024-01-25T00:36:26;9.50;99.90
39621;DHT22;25309;48.686;9.170;2024-01-25T00:38:55;9.50;99.90
39621;DHT22;25309;48.686;9.170;2024-01-25T00:41:22;9.50;99.90
39621;DHT22;25309;48.686;9.170;2024-01-25T00:43:50;9.50;99.90
39621;DHT22;25309;48.686;9.170;2024-01-25T00:46:18;9.50;99.90
39621;DHT22;25309;48.686;9.170;2024-01-25T00:48:46;9.50;99.90
39621;DHT22;25309;48.686;9.170;2024-01-25T00:51:15;9.50;99.90
39621;DHT22;25309;48.686;9.170;2024-01-25T00:53:43;9.50;99.90
39621;DHT22;25309;48.686;9.170;2024-01-25T00:56:12;9.60;99.90
39621;DHT22;25309;48.686;9.170;2024-01-25T00:58:39;9.60;99.90
39621;DHT22;25309;48.686;9.170;2024-01-25T01:01:07;9.60;99.90
39621;DHT22;25309;48.686;9.170;2024-01-25T01:03:37;9.60;99.90
39621;DHT22;25309;48.686;9.170;2024-01-25T01:06:05;9.70;99.90
39621;DHT22;25309;48.686;9.170;2024-01-25T01:08:32;9.70;99.90
39621;DHT22;25309;48.686;9.170;2024-01-25T01:10:59;9.70;99.90
39621;DHT22;25309;48.686;9.170;2024-01-25T01:13:27;9.70;99.90
39621;DHT22;25309;48.686;9.170;2024-01-25T01:15:54;9.70;99.90
39621;DHT22;25309;48.686;9.170;2024-01-25T01:18:21;9.60;99.90
39621;DHT22;25309;48.686;9.170;2024-01-25T01:20:49;9.50;99.90
39621;DHT22;25309;48.686;9.170;2024-01-25T01:23:16;9.50;99.90
39621;DHT22;25309;48.686;9.170;2024-01-25T01:25:43;9.40;99.90
39621;DHT22;25309;48.686;9.170;2024-01-25T01:28:10;9.40;99.90
39621;DHT22;25309;48.686;9.170;2024-01-25T01:30:38;9.30;99.90
39621;DHT22;25309;48.686;9.170;2024-01-25T01:33:08;9.30;99.90
39621;DHT22;25309;48.686;9.170;2024-01-25T01:35:35;9.30;99.90
39621;DHT22;25309;48.686;9.170;2024-01-25T01:38:03;9.30;99.90
39621;DHT22;25309;48.686;9.170;2024-01-25T01:40:30;9.30;99.90
39621;DHT22;25309;48.686;9.170;2024-01-25T01:43:00;9.20;99.90
39621;DHT22;25309;48.686;9.170;2024-01-25T01:45:28;9.20;99.90
39621;DHT22;25309;48.686;9.170;2024-01-25T01:47:57;9.20;99.90
39621;DHT22;25309;48.686;9.170;2024-01-25T01:50:24;9.20;99.90
39621;DHT22;25309;48.686;9.170;2024-01-25T01:52:52;9.20;99.90
39621;DHT22;25309;48.686;9.170;2024-01-25T01:55:19;9.20;99.90
39621;DHT22;25309;48.686;9.170;2024-01-25T01:57:47;9.10;99.90
39621;DHT22;25309;48.686;9.170;2024-01-25T02:00:15;9.20;99.90
39621;DHT22;25309;48.686;9.170;2024-01-25T02:02:45;9.20;99.90
39621;DHT22;25309;48.686;9.170;2024-01-25T02:05:13;9.20;99.90
39621;DHT22;25309;48.686;9.170;2024-01-25T02:07:40;9.20;99.90
39621;DHT22;25309;48.686;9.170;2024-01-25T02:10:09;9.20;99.90
39621;DHT22;25309;48.686;9.170;2024-01-25T02:12:36;9.20;99.90
39621;DHT22;25309;48.686;9.170;2024-01-25T02:15:05;9.30;99.90
39621;DHT22;25309;48.686;9.170;2024-01-25T02:17:32;9.30;99.90
39621;DHT22;25309;48.686;9.170;2024-01-25T02:19:59;9.30;99.90
39621;DHT22;25309;48.686;9.170;2024-01-25T02:22:30;9.30;99.90
39621;DHT22;25309;48.686;9.170;2024-01-25T02:24:58;9.30;99.90
39621;DHT22;25309;48.686;9.170;2024-01-25T02:27:25;9.30;99.90
39621;DHT22;25309;48.686;9.170;2024-01-25T02:29:52;9.40;99.90
39621;DHT22;25309;48.686;9.170;2024-01-25T02:32:19;9.40;99.90
39621;DHT22;25309;48.686;9.170;2024-01-25T02:34:46;9.30;99.90
39621;DHT22;25309;48.686;9.170;2024-01-25T02:37:13;9.30;99.90
39621;DHT22;25309;48.686;9.170;2024-01-25T02:39:43;9.30;99.90
39621;DHT22;25309;48.686;9.170;2024-01-25T02:42:10;9.30;99.90
39621;DHT22;25309;48.686;9.170;2024-01-25T02:44:37;9.30;99.90
39621;DHT22;25309;48.686;9.170;2024-01-25T02:47:04;9.30;99.90
39621;DHT22;25309;48.686;9.170;2024-01-25T02:49:31;9.20;99.90
39621;DHT22;25309;48.686;9.170;2024-01-25T02:51:58;9.20;99.90
39621;DHT22;25309;48.686;9.170;2024-01-25T02:54:25;9.20;99.90
39621;DHT22;25309;48.686;9.170;2024-01-25T02:56:54;9.30;99.90
39621;DHT22;25309;48.686;9.170;2024-01-25T02:59:21;9.30;99.90
39621;DHT22;25309;48.686;9.170;2024-01-25T03:01:48;9.20;99.90
39621;DHT22;25309;48.686;9.170;2024-01-25T03:04:16;9.20;99.90
39621;DHT22;25309;48.686;9.170;2024-01-25T03:06:43;9.10;99.90
39621;DHT22;25309;48.686;9.170;2024-01-25T03:09:10;9.10;99.90
39621;DHT22;25309;48.686;9.170;2024-01-25T03:11:37;9.10;99.90
39621;DHT22;25309;48.686;9.170;2024-01-25T03:14:06;9.10;99.90
39621;DHT22;25309;48.686;9.170;2024-01-25T03:16:32;9.10;99.90
39621;DHT22;25309;48.686;9.170;2024-01-25T03:18:59;9.10;99.90
39621;DHT22;25309;48.686;9.170;2024-01-25T03:21:26;9.10;99.90
39621;DHT22;25309;48.686;9.170;2024-01-25T03:23:53;9.00;99.90
39621;DHT22;25309;48.686;9.170;2024-01-25T03:26:20;9.00;99.90
39621;DHT22;25309;48.686;9.170;2024-01-25T03:28:47;9.10;99.90
39621;DHT22;25309;48.686;9.170;2024-01-25T03:31:15;9.10;99.90
39621;DHT22;25309;48.686;9.170;2024-01-25T03:33:42;9.10;99.90
39621;DHT22;25309;48.686;9.170;2024-01-25T03:36:13;9.10;99.90
39621;DHT22;25309;48.686;9.170;2024-01-25T03:38:40;9.10;99.90
39621;DHT22;25309;48.686;9.170;2024-01-25T03:41:07;9.10;99.90
39621;DHT22;25309;48.686;9.170;2024-01-25T03:43:34;9.10;99.90
39621;DHT22;25309;48.686;9.170;2024-01-25T03:46:10;9.10;99.90
39621;DHT22;25309;48.686;9.170;2024-01-25T03:48:38;9.10;99.90
39621;DHT22;25309;48.686;9.170;2024-01-25T03:51:05;9.20;99.90
39621;DHT22;25309;48.686;9.170;2024-01-25T03:53:32;9.20;99.90
39621;DHT22;25309;48.686;9.170;2024-01-25T03:55:59;9.20;99.90
39621;DHT22;25309;48.686;9.170;2024-01-25T03:58:26;9.20;99.90
39621;DHT22;25309;48.686;9.170;2024-01-25T04:00:53;9.20;99.90
39621;DHT22;25309;48.686;9.170;2024-01-25T04:03:21;9.20;99.90
39621;DHT22;25309;48.686;9.170;2024-01-25T04:05:49;9.20;99.90
39621;DHT22;25309;48.686;9.170;2024-01-25T04:08:16;9.20;99.90
39621;DHT22;25309;48.686;9.170;2024-01-25T04:10:43;9.20;99.90
39621;DHT22;25309;48.686;9.170;2024-01-25T04:13:10;9.20;99.90
39621;DHT22;25309;48.686;9.170;2024-01-25T04:15:37;9.10;99.90
39621;DHT22;25309;48.686;9.170;2024-01-25T04:18:04;9.10;99.90
39621;DHT22;25309;48.686;9.170;2024-01-25T04:20:31;9.10;99.90
39621;DHT22;25309;48.686;9.170;2024-01-25T04:23:02;9.10;99.90
39621;DHT22;25309;48.686;9.170;2024-01-25T04:25:29;9.00;99.90
39621;DHT22;25309;48.686;9.170;2024-01-25T04:28:00;9.00;99.90
39621;DHT22;25309;48.686;9.170;2024-01-25T04:30:27;9.00;99.90
39621;DHT22;25309;48.686;9.170;2024-01-25T04:32:54;9.00;99.90
39621;DHT22;25309;48.686;9.170;2024-01-25T04:35:21;9.00;99.90
39621;DHT22;25309;48.686;9.170;2024-01-25T04:37:48;9.00;99.90
39621;DHT22;25309;48.686;9.170;2024-01-25T04:40:16;9.00;99.90
39621;DHT22;25309;48.686;9.170;2024-01-25T04:42:44;8.90;99.90
39621;DHT22;25309;48.686;9.170;2024-01-25T04:45:11;8.90;99.90
39621;DHT22;25309;48.686;9.170;2024-01-25T04:47:38;8.80;99.90
39621;DHT22;25309;48.686;9.170;2024-01-25T04:50:07;8.80;99.90
39621;DHT22;25309;48.686;9.170;2024-01-25T04:52:34;8.80;99.90
39621;DHT22;25309;48.686;9.170;2024-01-25T04:55:01;8.80;99.90
39621;DHT22;25309;48.686;9.170;2024-01-25T04:57:30;8.80;99.90
39621;DHT22;25309;48.686;9.170;2024-01-25T04:59:57;8.80;99.90
39621;DHT22;25309;48.686;9.170;2024-01-25T05:02:24;8.80;99.90
39621;DHT22;25309;48.686;9.170;2024-01-25T05:04:51;8.70;99.90
39621;DHT22;25309;48.686;9.170;2024-01-25T05:07:18;8.70;99.90
39621;DHT22;25309;48.686;9.170;2024-01-25T05:09:55;8.70;99.90
39621;DHT22;25309;48.686;9.170;2024-01-25T05:12:22;8.70;99.90
39621;DHT22;25309;48.686;9.170;2024-01-25T05:14:50;8.70;99.90
39621;DHT22;25309;48.686;9.170;2024-01-25T05:17:17;8.70;99.90
39621;DHT22;25309;48.686;9.170;2024-01-25T05:19:44;8.70;99.90
39621;DHT22;25309;48.686;9.170;2024-01-25T05:22:11;8.70;99.90
39621;DHT22;25309;48.686;9.170;2024-01-25T05:24:38;8.70;99.90
39621;DHT22;25309;48.686;9.170;2024-01-25T05:27:05;8.70;99.90
39621;DHT22;25309;48.686;9.170;2024-01-25T05:29:32;8.70;99.90
39621;DHT22;25309;48.686;9.170;2024-01-25T05:32:01;8.70;99.90
39621;DHT22;25309;48.686;9.170;2024-01-25T05:34:28;8.60;99.90
39621;DHT22;25309;48.686;9.170;2024-01-25T05:36:55;8.50;99.90
39621;DHT22;25309;48.686;9.170;2024-01-25T05:39:22;8.50;99.90
39621;DHT22;25309;48.686;9.170;2024-01-25T05:41:49;8.40;99.90
39621;DHT22;25309;48.686;9.170;2024-01-25T05:44:16;8.30;99.90
39621;DHT22;25309;48.686;9.170;2024-01-25T05:46:43;8.30;99.90
39621;DHT22;25309;48.686;9.170;2024-01-25T05:49:11;8.20;99.90
39621;DHT22;25309;48.686;9.170;2024-01-25T05:51:39;8.20;99.90
39621;DHT22;25309;48.686;9.170;2024-01-25T05:54:06;8.10;99.90
39621;DHT22;25309;48.686;9.170;2024-01-25T05:56:32;8.10;99.90
39621;DHT22;25309;48.686;9.170;2024-01-25T05:58:59;8.00;99.90
39621;DHT22;25309;48.686;9.170;2024-01-25T06:01:26;8.00;99.90
39621;DHT22;25309;48.686;9.170;2024-01-25T06:03:53;8.00;99.90
39621;DHT22;25309;48.686;9.170;2024-01-25T06:06:22;8.00;99.90
39621;DHT22;25309;48.686;9.170;2024-01-25T06:08:49;7.90;99.90
39621;DHT22;25309;48.686;9.170;2024-01-25T06:11:28;7.90;99.90
39621;DHT22;25309;48.686;9.170;2024-01-25T06:13:54;7.80;99.90
39621;DHT22;25309;48.686;9.170;2024-01-25T06:16:21;7.70;99.90
39621;DHT22;25309;48.686;9.170;2024-01-25T06:18:48;7.70;99.90
39621;DHT22;25309;48.686;9.170;2024-01-25T06:21:16;7.70;99.90
39621;DHT22;25309;48.686;9.170;2024-01-25T06:23:44;7.60;99.90
39621;DHT22;25309;48.686;9.170;2024-01-25T06:26:11;7.50;99.90
39621;DHT22;25309;48.686;9.170;2024-01-25T06:28:38;7.50;99.90
39621;DHT22;25309;48.686;9.170;2024-01-25T06:31:05;7.40;99.90
39621;DHT22;25309;48.686;9.170;2024-01-25T06:33:32;7.40;99.90
39621;DHT22;25309;48.686;9.170;2024-01-25T06:36:00;7.40;99.90
39621;DHT22;25309;48.686;9.170;2024-01-25T06:38:27;7.40;99.90
39621;DHT22;25309;48.686;9.170;2024-01-25T06:40:55;7.40;99.90
39621;DHT22;25309;48.686;9.170;2024-01-25T06:43:22;7.40;99.90
39621;DHT22;25309;48.686;9.170;2024-01-25T06:45:49;7.40;99.90
39621;DHT22;25309;48.686;9.170;2024-01-25T06:48:16;7.30;99.90
39621;DHT22;25309;48.686;9.170;2024-01-25T06:50:43;7.30;99.90
39621;DHT22;25309;48.686;9.170;2024-01-25T06:53:11;7.30;99.90
39621;DHT22;25309;48.686;9.170;2024-01-25T06:55:38;7.30;99.90
39621;DHT22;25309;48.686;9.170;2024-01-25T06:58:06;7.30;99.90
39621;DHT22;25309;48.686;9.170;2024-01-25T07:00:33;7.30;99.90
39621;DHT22;25309;48.686;9.170;2024-01-25T07:03:01;7.20;99.90
39621;DHT22;25309;48.686;9.170;2024-01-25T07:05:29;7.20;99.90
39621;DHT22;25309;48.686;9.170;2024-01-25T07:08:00;7.10;99.90
39621;DHT22;25309;48.686;9.170;2024-01-25T07:10:26;7.10;99.90
39621;DHT22;25309;48.686;9.170;2024-01-25T07:12:54;7.10;99.90
39621;DHT22;25309;48.686;9.170;2024-01-25T07:15:22;7.10;99.90
39621;DHT22;25309;48.686;9.170;2024-01-25T07:17:49;7.20;99.90
39621;DHT22;25309;48.686;9.170;2024-01-25T07:20:16;7.20;99.90
39621;DHT22;25309;48.686;9.170;2024-01-25T07:22:46;7.20;99.90
39621;DHT22;25309;48.686;9.170;2024-01-25T07:25:13;7.10;99.90
39621;DHT22;25309;48.686;9.170;2024-01-25T07:27:39;7.20;99.90
39621;DHT22;25309;48.686;9.170;2024-01-25T07:30:11;7.10;99.90
39621;DHT22;25309;48.686;9.170;2024-01-25T07:32:40;7.20;99.90
39621;DHT22;25309;48.686;9.170;2024-01-25T07:35:09;7.20;99.90
39621;DHT22;25309;48.686;9.170;2024-01-25T07:37:36;7.30;99.90
39621;DHT22;25309;48.686;9.170;2024-01-25T07:40:04;7.30;99.90
39621;DHT22;25309;48.686;9.170;2024-01-25T07:42:31;7.30;99.90
39621;DHT22;25309;48.686;9.170;2024-01-25T07:44:59;7.30;99.90
39621;DHT22;25309;48.686;9.170;2024-01-25T07:47:26;7.40;99.90
39621;DHT22;25309;48.686;9.170;2024-01-25T07:49:54;7.40;99.90
39621;DHT22;25309;48.686;9.170;2024-01-25T07:52:21;7.50;99.90
39621;DHT22;25309;48.686;9.170;2024-01-25T07:54:53;7.60;99.90
39621;DHT22;25309;48.686;9.170;2024-01-25T07:57:20;7.80;99.90
39621;DHT22;25309;48.686;9.170;2024-01-25T07:59:47;8.00;99.90
39621;DHT22;25309;48.686;9.170;2024-01-25T08:02:14;8.20;99.90
39621;DHT22;25309;48.686;9.170;2024-01-25T08:04:47;8.30;99.90
39621;DHT22;25309;48.686;9.170;2024-01-25T08:07:15;8.50;99.90
39621;DHT22;25309;48.686;9.170;2024-01-25T08:09:42;8.60;99.90
39621;DHT22;25309;48.686;9.170;2024-01-25T08:12:10;8.60;99.90
39621;DHT22;25309;48.686;9.170;2024-01-25T08:14:37;8.70;99.90
39621;DHT22;25309;48.686;9.170;2024-01-25T08:17:04;8.90;99.90
39621;DHT22;25309;48.686;9.170;2024-01-25T08:19:31;9.00;99.90
39621;DHT22;25309;48.686;9.170;2024-01-25T08:21:58;9.00;99.90
39621;DHT22;25309;48.686;9.170;2024-01-25T08:24:27;9.10;99.90
39621;DHT22;25309;48.686;9.170;2024-01-25T08:26:54;9.20;99.90
39621;DHT22;25309;48.686;9.170;2024-01-25T08:29:21;9.30;99.90
39621;DHT22;25309;48.686;9.170;2024-01-25T08:31:48;9.40;99.90
39621;DHT22;25309;48.686;9.170;2024-01-25T08:34:15;9.40;99.90
39621;DHT22;25309;48.686;9.170;2024-01-25T08:36:42;9.40;99.90
39621;DHT22;25309;48.686;9.170;2024-01-25T08:39:09;9.50;99.90
39621;DHT22;25309;48.686;9.170;2024-01-25T08:41:37;9.60;99.90
39621;DHT22;25309;48.686;9.170;2024-01-25T08:44:07;9.80;99.90
39621;DHT22;25309;48.686;9.170;2024-01-25T08:46:34;10.20;99.90
39621;DHT22;25309;48.686;9.170;2024-01-25T08:49:01;10.60;99.90
39621;DHT22;25309;48.686;9.170;2024-01-25T08:51:34;11.40;99.90
39621;DHT22;25309;48.686;9.170;2024-01-25T08:54:01;11.80;99.90
39621;DHT22;25309;48.686;9.170;2024-01-25T08:56:30;12.00;99.90
39621;DHT22;25309;48.686;9.170;2024-01-25T08:58:58;12.60;99.90
39621;DHT22;25309;48.686;9.170;2024-01-25T09:01:25;12.80;99.90
39621;DHT22;25309;48.686;9.170;2024-01-25T09:03:52;12.90;99.90
39621;DHT22;25309;48.686;9.170;2024-01-25T09:06:20;13.10;99.90
39621;DHT22;25309;48.686;9.170;2024-01-25T09:08:47;13.30;99.90
39621;DHT22;25309;48.686;9.170;2024-01-25T09:11:14;13.70;99.90
39621;DHT22;25309;48.686;9.170;2024-01-25T09:13:41;13.90;99.90
39621;DHT22;25309;48.686;9.170;2024-01-25T09:16:15;14.10;99.90
39621;DHT22;25309;48.686;9.170;2024-01-25T09:18:43;14.20;99.90
39621;DHT22;25309;48.686;9.170;2024-01-25T09:21:10;14.50;99.90
39621;DHT22;25309;48.686;9.170;2024-01-25T09:23:37;14.80;99.90
39621;DHT22;25309;48.686;9.170;2024-01-25T09:26:04;15.20;99.90
39621;DHT22;25309;48.686;9.170;2024-01-25T09:28:31;15.30;99.90
39621;DHT22;25309;48.686;9.170;2024-01-25T09:30:58;15.50;99.90
39621;DHT22;25309;48.686;9.170;2024-01-25T09:33:26;15.60;99.90
39621;DHT22;25309;48.686;9.170;2024-01-25T09:35:54;15.70;99.90
39621;DHT22;25309;48.686;9.170;2024-01-25T09:38:21;15.90;99.90
39621;DHT22;25309;48.686;9.170;2024-01-25T09:40:48;15.90;99.90
39621;DHT22;25309;48.686;9.170;2024-01-25T09:43:17;16.10;99.90
39621;DHT22;25309;48.686;9.170;2024-01-25T09:45:45;15.80;99.90
39621;DHT22;25309;48.686;9.170;2024-01-25T09:48:13;15.20;99.90
39621;DHT22;25309;48.686;9.170;2024-01-25T09:50:42;14.90;99.90
39621;DHT22;25309;48.686;9.170;2024-01-25T09:53:15;14.70;99.90
39621;DHT22;25309;48.686;9.170;2024-01-25T09:55:46;14.60;99.90
39621;DHT22;25309;48.686;9.170;2024-01-25T09:58:15;14.20;99.90
39621;DHT22;25309;48.686;9.170;2024-01-25T10:00:42;13.60;99.90
39621;DHT22;25309;48.686;9.170;2024-01-25T10:03:10;13.10;99.90
39621;DHT22;25309;48.686;9.170;2024-01-25T10:05:37;12.80;99.90
39621;DHT22;25309;48.686;9.170;2024-01-25T10:08:12;12.70;99.90
39621;DHT22;25309;48.686;9.170;2024-01-25T10:10:40;12.50;99.90
39621;DHT22;25309;48.686;9.170;2024-01-25T10:13:12;12.30;99.90
39621;DHT22;25309;48.686;9.170;2024-01-25T10:15:40;12.70;99.90
39621;DHT22;25309;48.686;9.170;2024-01-25T10:18:08;13.30;99.90
39621;DHT22;25309;48.686;9.170;2024-01-25T10:20:55;13.80;99.90
39621;DHT22;25309;48.686;9.170;2024-01-25T10:23:23;14.10;99.90
39621;DHT22;25309;48.686;9.170;2024-01-25T10:25:52;13.90;99.90
39621;DHT22;25309;48.686;9.170;2024-01-25T10:28:20;13.80;99.90
39621;DHT22;25309;48.686;9.170;2024-01-25T10:30:47;13.70;99.90
39621;DHT22;25309;48.686;9.170;2024-01-25T10:33:15;14.50;99.90
39621;DHT22;25309;48.686;9.170;2024-01-25T10:35:44;15.60;99.90
39621;DHT22;25309;48.686;9.170;2024-01-25T10:38:12;15.70;99.90
39621;DHT22;25309;48.686;9.170;2024-01-25T10:40:41;15.30;99.90
39621;DHT22;25309;48.686;9.170;2024-01-25T10:43:14;14.50;99.90
39621;DHT22;25309;48.686;9.170;2024-01-25T10:45:42;14.80;99.90
39621;DHT22;25309;48.686;9.170;2024-01-25T10:48:09;15.40;99.90
39621;DHT22;25309;48.686;9.170;2024-01-25T10:50:36;16.40;99.90
39621;DHT22;25309;48.686;9.170;2024-01-25T10:53:04;16.90;99.90
39621;DHT22;25309;48.686;9.170;2024-01-25T10:55:32;16.40;99.90
39621;DHT22;25309;48.686;9.170;2024-01-25T10:58:01;16.60;99.90
39621;DHT22;25309;48.686;9.170;2024-01-25T11:00:31;16.90;99.60
39621;DHT22;25309;48.686;9.170;2024-01-25T11:03:00;17.30;98.80
39621;DHT22;25309;48.686;9.170;2024-01-25T11:05:28;17.40;99.10
39621;DHT22;25309;48.686;9.170;2024-01-25T11:07:55;17.80;98.50
39621;DHT22;25309;48.686;9.170;2024-01-25T11:10:25;17.50;98.60
39621;DHT22;25309;48.686;9.170;2024-01-25T11:12:56;17.20;99.60
39621;DHT22;25309;48.686;9.170;2024-01-25T11:15:30;17.50;99.00
39621;DHT22;25309;48.686;9.170;2024-01-25T11:17:58;18.10;97.90
39621;DHT22;25309;48.686;9.170;2024-01-25T11:20:27;18.30;97.60
39621;DHT22;25309;48.686;9.170;2024-01-25T11:22:56;18.80;97.80
39621;DHT22;25309;48.686;9.170;2024-01-25T11:25:23;20.00;96.70
39621;DHT22;25309;48.686;9.170;2024-01-25T11:27:54;20.60;94.80
39621;DHT22;25309;48.686;9.170;2024-01-25T11:30:22;21.00;95.20
39621;DHT22;25309;48.686;9.170;2024-01-25T11:32:51;21.00;93.40
39621;DHT22;25309;48.686;9.170;2024-01-25T11:35:18;21.00;93.60
39621;DHT22;25309;48.686;9.170;2024-01-25T11:37:49;20.70;92.90
39621;DHT22;25309;48.686;9.170;2024-01-25T11:40:18;19.90;93.70
39621;DHT22;25309;48.686;9.170;2024-01-25T11:42:48;19.60;93.80
39621;DHT22;25309;48.686;9.170;2024-01-25T11:45:15;19.10;94.10
39621;DHT22;25309;48.686;9.170;2024-01-25T11:47:43;18.70;94.20
39621;DHT22;25309;48.686;9.170;2024-01-25T11:50:12;18.40;94.00
39621;DHT22;25309;48.686;9.170;2024-01-25T11:52:39;17.60;94.50
39621;DHT22;25309;48.686;9.170;2024-01-25T11:55:08;17.40;95.00
39621;DHT22;25309;48.686;9.170;2024-01-25T11:57:37;17.90;95.00
39621;DHT22;25309;48.686;9.170;2024-01-25T12:00:07;17.70;94.30
39621;DHT22;25309;48.686;9.170;2024-01-25T12:02:36;17.00;95.00
39621;DHT22;25309;48.686;9.170;2024-01-25T12:05:05;16.40;96.20
39621;DHT22;25309;48.686;9.170;2024-01-25T12:07:33;16.50;96.10
39621;DHT22;25309;48.686;9.170;2024-01-25T12:10:04;16.20;96.20
39621;DHT22;25309;48.686;9.170;2024-01-25T12:12:31;16.50;96.70
39621;DHT22;25309;48.686;9.170;2024-01-25T12:14:59;16.70;95.70
39621;DHT22;25309;48.686;9.170;2024-01-25T12:17:27;16.10;96.00
39621;DHT22;25309;48.686;9.170;2024-01-25T12:19:55;16.00;96.50
39621;DHT22;25309;48.686;9.170;2024-01-25T12:22:23;15.50;96.60
39621;DHT22;25309;48.686;9.170;2024-01-25T12:24:54;15.00;97.60
39621;DHT22;25309;48.686;9.170;2024-01-25T12:27:27;15.00;97.90
39621;DHT22;25309;48.686;9.170;2024-01-25T12:29:54;15.00;97.90
39621;DHT22;25309;48.686;9.170;2024-01-25T12:32:21;14.70;98.30
39621;DHT22;25309;48.686;9.170;2024-01-25T12:34:55;14.60;99.00
39621;DHT22;25309;48.686;9.170;2024-01-25T12:37:22;14.40;98.70
39621;DHT22;25309;48.686;9.170;2024-01-25T12:39:51;14.40;98.90
39621;DHT22;25309;48.686;9.170;2024-01-25T12:42:21;14.20;98.60
39621;DHT22;25309;48.686;9.170;2024-01-25T12:44:52;13.90;99.10
39621;DHT22;25309;48.686;9.170;2024-01-25T12:47:19;13.70;99.50
39621;DHT22;25309;48.686;9.170;2024-01-25T12:49:46;13.90;99.50
39621;DHT22;25309;48.686;9.170;2024-01-25T12:52:14;14.60;99.20
39621;DHT22;25309;48.686;9.170;2024-01-25T12:54:42;15.30;97.70
39621;DHT22;25309;48.686;9.170;2024-01-25T12:57:11;15.90;97.00
39621;DHT22;25309;48.686;9.170;2024-01-25T12:59:39;16.40;96.20
39621;DHT22;25309;48.686;9.170;2024-01-25T13:02:07;17.00;96.50
39621;DHT22;25309;48.686;9.170;2024-01-25T13:04:35;17.70;95.30
39621;DHT22;25309;48.686;9.170;2024-01-25T13:07:02;18.20;95.00
39621;DHT22;25309;48.686;9.170;2024-01-25T13:09:29;18.70;94.70
39621;DHT22;25309;48.686;9.170;2024-01-25T13:12:00;19.00;94.50
39621;DHT22;25309;48.686;9.170;2024-01-25T13:14:27;19.10;93.70
39621;DHT22;25309;48.686;9.170;2024-01-25T13:16:56;19.50;93.70
39621;DHT22;25309;48.686;9.170;2024-01-25T13:19:22;19.80;92.60
39621;DHT22;25309;48.686;9.170;2024-01-25T13:21:50;20.30;92.20
39621;DHT22;25309;48.686;9.170;2024-01-25T13:24:19;20.40;91.20
39621;DHT22;25309;48.686;9.170;2024-01-25T13:26:46;20.20;92.10
39621;DHT22;25309;48.686;9.170;2024-01-25T13:29:13;19.90;92.20
39621;DHT22;25309;48.686;9.170;2024-01-25T13:31:40;19.70;92.00
39621;DHT22;25309;48.686;9.170;2024-01-25T13:34:08;19.10;92.70
39621;DHT22;25309;48.686;9.170;2024-01-25T13:36:36;18.80;92.90
39621;DHT22;25309;48.686;9.170;2024-01-25T13:39:03;18.50;93.30
39621;DHT22;25309;48.686;9.170;2024-01-25T13:41:30;18.50;93.70
39621;DHT22;25309;48.686;9.170;2024-01-25T13:43:57;18.40;93.00
39621;DHT22;25309;48.686;9.170;2024-01-25T13:46:24;18.00;93.60
39621;DHT22;25309;48.686;9.170;2024-01-25T13:48:52;17.30;94.20
39621;DHT22;25309;48.686;9.170;2024-01-25T13:51:21;16.90;95.00
39621;DHT22;25309;48.686;9.170;2024-01-25T13:53:48;16.70;95.10
39621;DHT22;25309;48.686;9.170;2024-01-25T13:56:16;16.60;95.30
39621;DHT22;25309;48.686;9.170;2024-01-25T13:58:43;16.40;95.80
39621;DHT22;25309;48.686;9.170;2024-01-25T14:01:10;16.10;95.50
39621;DHT22;25309;48.686;9.170;2024-01-25T14:03:39;15.70;96.00
39621;DHT22;25309;48.686;9.170;2024-01-25T14:06:11;15.40;96.40
39621;DHT22;25309;48.686;9.170;2024-01-25T14:08:40;15.30;97.20
39621;DHT22;25309;48.686;9.170;2024-01-25T14:11:07;15.50;97.20
39621;DHT22;25309;48.686;9.170;2024-01-25T14:13:34;15.50;96.90
39621;DHT22;25309;48.686;9.170;2024-01-25T14:16:01;15.40;96.90
39621;DHT22;25309;48.686;9.170;2024-01-25T14:18:28;15.20;97.90
39621;DHT22;25309;48.686;9.170;2024-01-25T14:20:57;15.10;97.40
39621;DHT22;25309;48.686;9.170;2024-01-25T14:23:24;15.10;97.80
39621;DHT22;25309;48.686;9.170;2024-01-25T14:25:52;15.10;98.10
39621;DHT22;25309;48.686;9.170;2024-01-25T14:28:19;15.10;97.90
39621;DHT22;25309;48.686;9.170;2024-01-25T14:30:47;15.00;97.90
39621;DHT22;25309;48.686;9.170;2024-01-25T14:33:14;14.90;97.90
39621;DHT22;25309;48.686;9.170;2024-01-25T14:35:42;14.50;98.40
39621;DHT22;25309;48.686;9.170;2024-01-25T14:38:09;14.10;99.10
39621;DHT22;25309;48.686;9.170;2024-01-25T14:40:35;13.60;99.60
39621;DHT22;25309;48.686;9.170;2024-01-25T14:43:24;13.30;99.90
39621;DHT22;25309;48.686;9.170;2024-01-25T14:45:51;13.10;99.90
39621;DHT22;25309;48.686;9.170;2024-01-25T14:48:19;12.90;99.90
39621;DHT22;25309;48.686;9.170;2024-01-25T14:50:46;12.80;99.90
39621;DHT22;25309;48.686;9.170;2024-01-25T14:53:13;12.70;99.90
39621;DHT22;25309;48.686;9.170;2024-01-25T14:55:40;12.60;99.90
39621;DHT22;25309;48.686;9.170;2024-01-25T14:58:07;12.50;99.90
39621;DHT22;25309;48.686;9.170;2024-01-25T15:00:37;12.50;99.90
39621;DHT22;25309;48.686;9.170;2024-01-25T15:03:05;12.50;99.90
39621;DHT22;25309;48.686;9.170;2024-01-25T15:05:32;12.40;99.90
39621;DHT22;25309;48.686;9.170;2024-01-25T15:07:59;12.40;99.90
39621;DHT22;25309;48.686;9.170;2024-01-25T15:10:26;12.20;99.90
39621;DHT22;25309;48.686;9.170;2024-01-25T15:12:53;12.10;99.90
39621;DHT22;25309;48.686;9.170;2024-01-25T15:15:21;12.00;99.90
39621;DHT22;25309;48.686;9.170;2024-01-25T15:17:50;11.90;99.90
39621;DHT22;25309;48.686;9.170;2024-01-25T15:20:18;11.80;99.90
39621;DHT22;25309;48.686;9.170;2024-01-25T15:22:44;11.80;99.90
39621;DHT22;25309;48.686;9.170;2024-01-25T15:25:11;11.70;99.90
39621;DHT22;25309;48.686;9.170;2024-01-25T15:27:39;11.60;99.90
39621;DHT22;25309;48.686;9.170;2024-01-25T15:30:07;11.50;99.90
39621;DHT22;25309;48.686;9.170;2024-01-25T15:32:36;11.40;99.90
39621;DHT22;25309;48.686;9.170;2024-01-25T15:35:05;11.40;99.90
39621;DHT22;25309;48.686;9.170;2024-01-25T15:37:32;11.30;99.90
39621;DHT22;25309;48.686;9.170;2024-01-25T15:39:59;11.30;99.90
39621;DHT22;25309;48.686;9.170;2024-01-25T15:42:26;11.30;99.90
39621;DHT22;25309;48.686;9.170;2024-01-25T15:44:58;11.20;99.90